createdAt,value
2018-02-23T00:00:41.494Z,60.60
2018-02-23T00:03:08.926Z,60.91
2018-02-23T00:05:36.360Z,61.40
2018-02-23T00:08:03.785Z,61.37
2018-02-23T00:10:31.200Z,61.37
2018-02-23T00:12:58.614Z,61.32
2018-02-23T00:15:26.033Z,60.65
2018-02-23T00:17:53.462Z,60.98
2018-02-23T00:20:20.881Z,59.99
2018-02-23T00:22:48.281Z,61.25
2018-02-23T00:25:15.733Z,60.68
2018-02-23T00:27:43.179Z,60.09
2018-02-23T00:30:10.598Z,60.05
2018-02-23T00:32:38.001Z,60.39
2018-02-23T00:35:05.427Z,60.11
2018-02-23T00:37:32.833Z,61.07
2018-02-23T00:40:00.278Z,60.98
2018-02-23T00:42:27.713Z,59.93
2018-02-23T00:44:55.152Z,60.28
2018-02-23T00:47:22.573Z,60.18
2018-02-23T00:49:49.985Z,60.87
2018-02-23T00:52:17.401Z,60.80
2018-02-23T00:54:44.816Z,59.64
2018-02-23T00:57:12.231Z,59.87
2018-02-23T00:59:39.666Z,60.80
2018-02-23T01:02:07.084Z,61.19
2018-02-23T01:04:34.502Z,60.23
2018-02-23T01:07:01.920Z,61.08
2018-02-23T01:09:29.666Z,60.78
2018-02-23T01:11:57.109Z,60.70
2018-02-23T01:14:24.552Z,61.40
2018-02-23T01:16:51.960Z,61.03
2018-02-23T01:19:19.473Z,61.51
2018-02-23T01:21:46.897Z,60.81
2018-02-23T01:24:14.329Z,60.93
2018-02-23T01:26:41.784Z,60.88
2018-02-23T01:29:09.214Z,61.07
2018-02-23T01:31:36.634Z,61.31
2018-02-23T01:34:04.062Z,61.12
2018-02-23T01:36:31.482Z,61.03
2018-02-23T01:38:58.905Z,61.61
2018-02-23T01:41:26.329Z,61.79
2018-02-23T01:43:54.042Z,61.14
2018-02-23T01:46:22.310Z,60.95
2018-02-23T01:48:49.732Z,61.31
2018-02-23T01:51:17.153Z,60.75
2018-02-23T01:53:44.585Z,61.35
2018-02-23T01:56:12.003Z,60.96
2018-02-23T01:58:39.425Z,61.22
2018-02-23T02:01:06.932Z,61.45
2018-02-23T02:03:34.373Z,61.45
2018-02-23T02:06:01.799Z,62.26
2018-02-23T02:08:29.246Z,61.84
2018-02-23T02:10:56.662Z,62.56
2018-02-23T02:13:24.069Z,62.79
2018-02-23T02:15:51.506Z,63.06
2018-02-23T02:18:18.914Z,62.47
2018-02-23T02:20:46.339Z,63.14
2018-02-23T02:23:13.769Z,62.73
2018-02-23T02:25:41.250Z,63.05
2018-02-23T02:28:08.693Z,62.88
2018-02-23T02:30:36.127Z,63.19
2018-02-23T02:33:03.539Z,63.41
2018-02-23T02:35:30.966Z,63.00
2018-02-23T02:37:58.378Z,63.32
2018-02-23T02:40:25.807Z,63.14
2018-02-23T02:42:53.842Z,63.28
2018-02-23T02:45:21.285Z,63.16
2018-02-23T02:47:48.702Z,62.78
2018-02-23T02:50:16.130Z,63.10
2018-02-23T02:52:43.552Z,62.96
2018-02-23T02:55:10.971Z,62.94
2018-02-23T02:57:38.444Z,62.57
2018-02-23T03:00:05.866Z,62.29
2018-02-23T03:02:33.287Z,62.45
2018-02-23T03:05:00.706Z,62.97
2018-02-23T03:07:28.120Z,62.36
2018-02-23T03:09:55.545Z,62.60
2018-02-23T03:12:23.015Z,63.07
2018-02-23T03:14:50.458Z,62.85
2018-02-23T03:17:17.914Z,62.83
2018-02-23T03:19:45.360Z,63.14
2018-02-23T03:22:12.762Z,63.01
2018-02-23T03:24:40.201Z,63.51
2018-02-23T03:27:07.617Z,63.54
2018-02-23T03:29:35.138Z,63.28
2018-02-23T03:32:02.556Z,63.42
2018-02-23T03:34:29.962Z,62.64
2018-02-23T03:36:57.455Z,62.53
2018-02-23T03:39:25.464Z,62.87
2018-02-23T03:41:52.927Z,64.03
2018-02-23T03:44:20.389Z,63.06
2018-02-23T03:46:47.834Z,63.15
2018-02-23T03:49:15.249Z,62.91
2018-02-23T03:51:42.712Z,63.82
2018-02-23T03:54:10.141Z,63.15
2018-02-23T03:56:37.554Z,63.40
2018-02-23T03:59:04.977Z,63.04
2018-02-23T04:01:32.389Z,63.74
2018-02-23T04:03:59.866Z,63.67
2018-02-23T04:06:27.298Z,63.57
2018-02-23T04:08:54.710Z,63.93
2018-02-23T04:11:22.133Z,63.53
2018-02-23T04:13:49.552Z,63.61
2018-02-23T04:16:16.976Z,63.87
2018-02-23T04:18:44.389Z,64.17
2018-02-23T04:21:11.824Z,64.42
2018-02-23T04:23:39.229Z,64.57
2018-02-23T04:26:06.702Z,65.32
2018-02-23T04:28:34.140Z,65.79
2018-02-23T04:31:01.554Z,65.47
2018-02-23T04:33:28.983Z,64.87
2018-02-23T04:35:57.154Z,65.12
2018-02-23T04:38:24.566Z,65.28
2018-02-23T04:40:52.010Z,65.92
2018-02-23T04:43:19.442Z,65.78
2018-02-23T04:45:46.869Z,65.72
2018-02-23T04:48:14.378Z,66.19
2018-02-23T04:50:41.798Z,65.82
2018-02-23T04:53:09.250Z,66.19
2018-02-23T04:55:36.685Z,66.34
2018-02-23T04:58:04.098Z,66.67
2018-02-23T05:00:31.514Z,67.06
2018-02-23T05:02:58.958Z,67.02
2018-02-23T05:05:29.409Z,66.93
2018-02-23T05:07:56.840Z,67.12
2018-02-23T05:10:24.347Z,67.35
2018-02-23T05:12:51.770Z,68.11
2018-02-23T05:15:19.246Z,68.17
2018-02-23T05:17:46.665Z,68.07
2018-02-23T05:20:14.097Z,68.13
2018-02-23T05:22:41.520Z,68.65
2018-02-23T05:25:08.983Z,68.88
2018-02-23T05:27:36.415Z,68.53
2018-02-23T05:30:03.878Z,69.08
2018-02-23T05:32:31.377Z,68.56
2018-02-23T05:34:58.946Z,68.89
2018-02-23T05:37:26.407Z,69.32
2018-02-23T05:39:53.829Z,69.71
2018-02-23T05:42:21.250Z,69.83
2018-02-23T05:44:48.682Z,69.49
2018-02-23T05:47:16.169Z,69.12
2018-02-23T05:49:43.573Z,68.95
2018-02-23T05:52:10.998Z,68.87
2018-02-23T05:54:38.451Z,69.68
2018-02-23T05:57:06.017Z,69.68
2018-02-23T05:59:33.411Z,70.03
2018-02-23T06:02:00.838Z,70.22
2018-02-23T06:04:28.290Z,69.38
2018-02-23T06:06:55.715Z,69.56
2018-02-23T06:09:23.135Z,69.94
2018-02-23T06:11:50.573Z,69.90
2018-02-23T06:14:17.999Z,70.17
2018-02-23T06:16:45.422Z,70.40
2018-02-23T06:19:12.831Z,70.10
2018-02-23T06:21:40.273Z,70.19
2018-02-23T06:24:07.795Z,69.57
2018-02-23T06:26:35.217Z,70.41
2018-02-23T06:29:02.638Z,70.55
2018-02-23T06:31:30.747Z,70.18
2018-02-23T06:33:58.154Z,70.32
2018-02-23T06:36:25.571Z,70.03
2018-02-23T06:38:53.004Z,69.88
2018-02-23T06:41:20.429Z,69.92
2018-02-23T06:43:47.850Z,70.09
2018-02-23T06:46:15.277Z,70.10
2018-02-23T06:48:42.702Z,70.08
2018-02-23T06:51:10.113Z,70.33
2018-02-23T06:53:37.566Z,70.16
2018-02-23T06:56:04.983Z,70.45
2018-02-23T06:58:32.406Z,70.31
2018-02-23T07:00:59.815Z,70.15
2018-02-23T07:03:27.721Z,70.06
2018-02-23T07:05:55.177Z,69.38
2018-02-23T07:08:22.610Z,69.97
2018-02-23T07:10:50.060Z,69.39
2018-02-23T07:13:17.451Z,70.26
2018-02-23T07:15:44.875Z,69.45
2018-02-23T07:18:12.294Z,69.00
2018-02-23T07:20:39.720Z,68.68
2018-02-23T07:23:07.151Z,69.32
2018-02-23T07:25:34.566Z,69.00
2018-02-23T07:28:02.605Z,68.73
2018-02-23T07:30:30.024Z,68.13
2018-02-23T07:32:57.563Z,68.23
2018-02-23T07:35:24.978Z,67.33
2018-02-23T07:37:52.396Z,67.22
2018-02-23T07:40:19.820Z,67.30
2018-02-23T07:42:47.238Z,67.71
2018-02-23T07:45:14.669Z,67.45
2018-02-23T07:47:42.134Z,67.51
2018-02-23T07:50:09.550Z,67.57
2018-02-23T07:52:36.979Z,67.47
2018-02-23T07:55:04.452Z,66.93
2018-02-23T07:57:31.917Z,67.16
2018-02-23T07:59:59.333Z,67.18
2018-02-23T08:02:26.752Z,66.90
2018-02-23T08:04:54.177Z,66.63
2018-02-23T08:07:21.595Z,67.43
2018-02-23T08:09:49.068Z,67.00
2018-02-23T08:12:16.489Z,66.18
2018-02-23T08:14:44.021Z,66.14
2018-02-23T08:17:11.387Z,66.82
2018-02-23T08:19:38.826Z,66.55
2018-02-23T08:22:06.252Z,66.00
2018-02-23T08:24:34.605Z,66.31
2018-02-23T08:27:02.026Z,67.37
2018-02-23T08:29:29.500Z,67.00
2018-02-23T08:31:56.914Z,66.33
2018-02-23T08:34:24.346Z,66.82
2018-02-23T08:36:51.804Z,66.79
2018-02-23T08:39:19.223Z,66.32
2018-02-23T08:41:46.651Z,65.75
2018-02-23T08:44:14.074Z,64.81
2018-02-23T08:46:41.529Z,65.11
2018-02-23T08:49:08.945Z,65.03
2018-02-23T08:51:36.366Z,65.24
2018-02-23T08:54:03.790Z,64.55
2018-02-23T08:56:31.195Z,65.26
2018-02-23T08:58:58.634Z,64.94
2018-02-23T09:01:26.056Z,65.35
2018-02-23T09:03:53.471Z,64.56
2018-02-23T09:06:20.881Z,63.77
2018-02-23T09:08:48.329Z,63.81
2018-02-23T09:11:15.767Z,63.05
2018-02-23T09:13:43.201Z,62.83
2018-02-23T09:16:10.610Z,62.40
2018-02-23T09:18:38.093Z,62.98
2018-02-23T09:21:05.503Z,62.22
2018-02-23T09:23:32.935Z,63.38
2018-02-23T09:26:00.367Z,63.54
2018-02-23T09:28:27.817Z,63.33
2018-02-23T09:30:55.230Z,62.64
2018-02-23T09:33:22.663Z,62.82
2018-02-23T09:35:50.073Z,62.85
2018-02-23T09:38:17.485Z,61.87
2018-02-23T09:40:44.927Z,62.32
2018-02-23T09:43:12.365Z,62.67
2018-02-23T09:45:39.778Z,62.85
2018-02-23T09:48:07.681Z,62.11
2018-02-23T09:50:35.114Z,62.45
2018-02-23T09:53:02.525Z,63.10
2018-02-23T09:55:29.969Z,63.61
2018-02-23T09:57:57.528Z,63.56
2018-02-23T10:00:24.960Z,62.77
2018-02-23T10:02:52.389Z,62.20
2018-02-23T10:05:19.809Z,62.41
2018-02-23T10:07:47.253Z,61.23
2018-02-23T10:10:14.678Z,61.28
2018-02-23T10:12:42.094Z,59.93
2018-02-23T10:15:09.541Z,59.87
2018-02-23T10:17:37.112Z,59.70
2018-02-23T10:20:04.529Z,59.25
2018-02-23T10:22:31.982Z,60.25
2018-02-23T10:24:59.418Z,60.32
2018-02-23T10:27:26.822Z,60.76
2018-02-23T10:29:54.269Z,60.43
2018-02-23T10:32:21.691Z,60.37
2018-02-23T10:34:49.569Z,59.87
2018-02-23T10:37:16.989Z,59.27
2018-02-23T10:39:44.407Z,59.32
2018-02-23T10:42:11.826Z,59.63
2018-02-23T10:44:39.955Z,59.97
2018-02-23T10:47:07.379Z,60.19
2018-02-23T10:49:34.798Z,59.37
2018-02-23T10:52:02.215Z,59.36
2018-02-23T10:54:29.665Z,59.32
2018-02-23T10:56:57.122Z,59.58
2018-02-23T10:59:24.565Z,59.38
2018-02-23T11:01:51.981Z,60.07
2018-02-23T11:04:19.390Z,60.54
2018-02-23T11:06:46.820Z,58.57
2018-02-23T11:09:14.264Z,59.29
2018-02-23T11:11:41.697Z,59.34
2018-02-23T11:14:09.151Z,59.46
2018-02-23T11:16:36.577Z,59.17
2018-02-23T11:19:04.091Z,60.16
2018-02-23T11:21:31.519Z,59.34
2018-02-23T11:23:58.935Z,59.16
2018-02-23T11:26:26.435Z,59.41
2018-02-23T11:28:53.866Z,59.74
2018-02-23T11:31:21.290Z,59.75
2018-02-23T11:33:48.810Z,59.11
2018-02-23T11:36:16.222Z,58.88
2018-02-23T11:38:43.625Z,59.39
2018-02-23T11:41:11.072Z,59.07
2018-02-23T11:43:38.555Z,59.72
2018-02-23T11:46:05.971Z,60.03
2018-02-23T11:48:33.419Z,60.58
2018-02-23T11:51:00.879Z,60.07
2018-02-23T11:53:28.320Z,60.15
2018-02-23T11:55:55.758Z,60.75
2018-02-23T11:58:23.173Z,60.77
2018-02-23T12:00:50.631Z,59.33
2018-02-23T12:03:18.026Z,59.65
2018-02-23T12:05:45.543Z,60.12
2018-02-23T12:08:13.430Z,58.76
2018-02-23T12:10:40.852Z,58.92
2018-02-23T12:13:08.279Z,58.04
2018-02-23T12:15:35.722Z,57.90
2018-02-23T12:18:03.165Z,57.93
2018-02-23T12:20:30.587Z,55.81
2018-02-23T12:22:58.001Z,57.52
2018-02-23T12:25:25.430Z,57.92
2018-02-23T12:27:52.846Z,57.71
2018-02-23T12:30:20.280Z,57.47
2018-02-23T12:32:47.766Z,57.64
2018-02-23T12:35:15.182Z,56.92
2018-02-23T12:37:42.612Z,56.17
2018-02-23T12:40:10.055Z,56.72
2018-02-23T12:42:37.466Z,56.81
2018-02-23T12:45:04.882Z,57.19
2018-02-23T12:47:32.306Z,57.84
2018-02-23T12:49:59.715Z,58.08
2018-02-23T12:52:27.134Z,56.11
2018-02-23T12:54:54.540Z,55.93
2018-02-23T12:57:21.965Z,55.86
2018-02-23T12:59:49.370Z,55.05
2018-02-23T13:02:16.850Z,55.23
2018-02-23T13:04:44.353Z,55.44
2018-02-23T13:07:11.781Z,55.59
2018-02-23T13:09:39.225Z,55.30
2018-02-23T13:12:06.739Z,56.27
2018-02-23T13:14:39.782Z,55.22
2018-02-23T13:17:07.242Z,56.09
2018-02-23T13:19:34.653Z,55.72
2018-02-23T13:22:02.105Z,55.50
2018-02-23T13:24:29.501Z,56.03
2018-02-23T13:27:02.619Z,55.76
2018-02-23T13:29:30.042Z,55.37
2018-02-23T13:31:57.489Z,56.22
2018-02-23T13:34:24.908Z,55.55
2018-02-23T13:36:52.330Z,55.91
2018-02-23T13:39:19.754Z,56.10
2018-02-23T13:41:47.678Z,55.74
2018-02-23T13:44:15.116Z,55.97
2018-02-23T13:46:42.541Z,54.58
2018-02-23T13:49:09.948Z,55.05
2018-02-23T13:51:37.362Z,55.46
2018-02-23T13:54:11.198Z,55.40
2018-02-23T13:56:38.613Z,55.73
2018-02-23T13:59:06.022Z,55.65
2018-02-23T14:01:33.443Z,54.16
2018-02-23T14:04:00.855Z,54.36
2018-02-23T14:06:30.209Z,54.84
2018-02-23T14:08:57.713Z,55.69
2018-02-23T14:11:25.151Z,55.17
2018-02-23T14:13:52.800Z,54.78
2018-02-23T14:16:20.302Z,54.68
2018-02-23T14:18:47.728Z,54.85
2018-02-23T14:21:15.154Z,54.73
2018-02-23T14:23:42.577Z,55.10
2018-02-23T14:26:10.010Z,54.08
2018-02-23T14:28:37.426Z,55.20
2018-02-23T14:31:04.841Z,55.28
2018-02-23T14:33:32.258Z,54.30
2018-02-23T14:35:59.662Z,55.58
2018-02-23T14:38:27.096Z,54.88
2018-02-23T14:40:54.516Z,55.00
2018-02-23T14:43:22.069Z,55.20
2018-02-23T14:45:49.425Z,55.02
2018-02-23T14:51:17.811Z,54.57
2018-02-23T14:53:45.234Z,54.66
2018-02-23T14:56:12.644Z,54.47
2018-02-23T14:58:40.059Z,54.59
2018-02-23T15:01:07.473Z,54.91
2018-02-23T15:03:34.885Z,53.95
2018-02-23T15:06:02.290Z,54.15
2018-02-23T15:08:29.708Z,53.72
2018-02-23T15:10:57.128Z,54.59
2018-02-23T15:13:24.528Z,54.38
2018-02-23T15:15:52.424Z,53.51
2018-02-23T15:18:19.849Z,55.82
2018-02-23T15:20:47.248Z,54.44
2018-02-23T15:23:14.657Z,54.51
2018-02-23T15:25:42.070Z,54.22
2018-02-23T15:28:09.485Z,55.01
2018-02-23T15:30:48.732Z,53.33
2018-02-23T15:33:16.151Z,54.14
2018-02-23T15:35:43.559Z,55.21
2018-02-23T15:38:10.975Z,54.94
2018-02-23T15:40:38.386Z,54.34
2018-02-23T15:43:05.806Z,54.78
2018-02-23T15:45:33.224Z,55.02
2018-02-23T15:48:15.535Z,54.60
2018-02-23T15:50:48.497Z,55.30
2018-02-23T15:53:15.914Z,55.67
2018-02-23T15:55:43.325Z,54.95
2018-02-23T15:58:16.293Z,54.95
2018-02-23T16:00:43.707Z,55.72
2018-02-23T16:03:11.129Z,55.32
2018-02-23T16:05:38.541Z,55.00
2018-02-23T16:08:05.955Z,54.99
2018-02-23T16:10:33.360Z,54.67
2018-02-23T16:13:00.785Z,55.67
2018-02-23T16:15:28.203Z,53.98
2018-02-23T16:17:55.609Z,54.68
2018-02-23T16:20:23.029Z,55.08
2018-02-23T16:22:51.293Z,56.00
2018-02-23T16:25:18.697Z,55.25
2018-02-23T16:27:46.117Z,55.05
2018-02-23T16:30:13.521Z,55.24
2018-02-23T16:32:40.937Z,56.56
2018-02-23T16:35:08.345Z,54.77
2018-02-23T16:37:35.754Z,54.54
2018-02-23T16:40:03.165Z,54.79
2018-02-23T16:42:30.584Z,55.22
2018-02-23T16:44:58.001Z,56.10
2018-02-23T16:47:25.458Z,55.93
2018-02-23T16:49:52.826Z,55.85
2018-02-23T16:52:20.233Z,55.93
2018-02-23T16:54:47.649Z,56.74
2018-02-23T16:57:15.050Z,56.64
2018-02-23T16:59:42.466Z,56.44
2018-02-23T17:02:09.864Z,55.94
2018-02-23T17:04:37.284Z,56.03
2018-02-23T17:07:04.686Z,56.13
2018-02-23T17:09:32.107Z,55.57
2018-02-23T17:11:59.505Z,55.92
2018-02-23T17:14:26.926Z,56.68
2018-02-23T17:16:54.340Z,55.92
2018-02-23T17:19:21.744Z,56.18
2018-02-23T17:21:49.157Z,56.18
2018-02-23T17:24:16.573Z,56.37
2018-02-23T17:26:43.987Z,56.10
2018-02-23T17:29:11.406Z,56.75
2018-02-23T17:31:38.800Z,56.24
2018-02-23T17:34:06.223Z,56.15
2018-02-23T17:36:33.623Z,55.73
2018-02-23T17:39:01.046Z,56.42
2018-02-23T17:41:28.447Z,56.64
2018-02-23T17:43:56.461Z,56.52
2018-02-23T17:46:23.866Z,55.57
2018-02-23T17:48:51.269Z,55.81
2018-02-23T17:51:18.682Z,56.26
2018-02-23T17:53:46.097Z,55.92
2018-02-23T17:56:13.502Z,56.48
2018-02-23T17:58:40.920Z,56.29
2018-02-23T18:01:08.324Z,55.92
2018-02-23T18:03:35.736Z,56.37
2018-02-23T18:06:03.136Z,56.14
2018-02-23T18:08:30.545Z,57.01
2018-02-23T18:10:57.961Z,56.46
2018-02-23T18:13:25.377Z,56.37
2018-02-23T18:15:52.832Z,56.92
2018-02-23T18:18:20.203Z,57.21
2018-02-23T18:20:47.619Z,56.64
2018-02-23T18:23:15.018Z,56.93
2018-02-23T18:25:42.428Z,56.60
2018-02-23T18:28:10.605Z,56.06
2018-02-23T18:30:38.018Z,55.81
2018-02-23T18:33:05.416Z,56.27
2018-02-23T18:35:32.833Z,56.43
2018-02-23T18:38:00.232Z,56.65
2018-02-23T18:40:28.351Z,56.85
2018-02-23T18:42:55.745Z,56.91
2018-02-23T18:45:23.160Z,57.55
2018-02-23T18:47:50.561Z,57.69
2018-02-23T18:50:17.979Z,57.40
2018-02-23T18:52:45.604Z,57.76
2018-02-23T18:55:13.797Z,58.43
2018-02-23T18:57:41.205Z,57.66
2018-02-23T19:00:08.619Z,57.89
2018-02-23T19:02:36.601Z,58.50
2018-02-23T19:05:04.024Z,58.35
2018-02-23T19:07:31.433Z,58.27
2018-02-23T19:09:59.208Z,58.32
2018-02-23T19:12:26.612Z,58.86
2018-02-23T19:14:55.593Z,59.08
2018-02-23T19:17:22.997Z,59.11
2018-02-23T19:19:50.405Z,59.52
2018-02-23T19:22:17.814Z,59.66
2018-02-23T19:24:45.229Z,59.87
2018-02-23T19:27:12.637Z,60.19
2018-02-23T19:29:40.059Z,60.21
2018-02-23T19:32:07.468Z,60.36
2018-02-23T19:34:34.895Z,60.60
2018-02-23T19:37:02.307Z,60.47
2018-02-23T19:39:30.153Z,60.69
2018-02-23T19:41:57.571Z,60.44
2018-02-23T19:44:24.985Z,60.13
2018-02-23T19:46:52.398Z,60.47
2018-02-23T19:49:19.812Z,61.16
2018-02-23T19:51:47.291Z,60.65
2018-02-23T19:54:14.649Z,60.94
2018-02-23T19:56:42.068Z,61.44
2018-02-23T19:59:09.483Z,60.93
2018-02-23T20:01:36.905Z,61.12
2018-02-23T20:04:04.317Z,61.41
2018-02-23T20:06:31.733Z,61.69
2018-02-23T20:08:59.156Z,61.30
2018-02-23T20:11:26.577Z,61.43
2018-02-23T20:13:53.986Z,61.60
2018-02-23T20:16:21.400Z,61.36
2018-02-23T20:18:48.809Z,61.21
2018-02-23T20:21:16.230Z,60.71
2018-02-23T20:23:43.631Z,60.53
2018-02-23T20:26:11.051Z,60.92
2018-02-23T20:28:38.462Z,60.93
2018-02-23T20:31:05.866Z,60.67
2018-02-23T20:33:33.264Z,61.13
2018-02-23T20:36:00.684Z,60.51
2018-02-23T20:38:28.085Z,60.88
2018-02-23T20:40:55.505Z,61.12
2018-02-23T20:43:22.912Z,61.73
2018-02-23T20:45:50.327Z,61.77
2018-02-23T20:48:17.729Z,60.61
2018-02-23T20:50:45.138Z,60.78
2018-02-23T20:53:12.546Z,60.72
2018-02-23T20:55:39.957Z,60.95
2018-02-23T20:58:07.368Z,60.73
2018-02-23T21:00:34.782Z,61.06
2018-02-23T21:03:02.772Z,61.38
2018-02-23T21:05:30.180Z,61.28
2018-02-23T21:07:58.055Z,61.48
2018-02-23T21:10:25.465Z,61.54
2018-02-23T21:12:52.877Z,61.46
2018-02-23T21:15:20.286Z,60.91
2018-02-23T21:17:47.705Z,60.77
2018-02-23T21:20:15.114Z,60.70
2018-02-23T21:22:42.529Z,60.69
2018-02-23T21:25:09.938Z,60.84
2018-02-23T21:27:37.353Z,61.29
2018-02-23T21:30:04.763Z,61.26
2018-02-23T21:32:32.186Z,61.56
2018-02-23T21:34:59.589Z,61.40
2018-02-23T21:37:27.010Z,61.20
2018-02-23T21:39:54.416Z,61.02
2018-02-23T21:42:21.828Z,61.29
2018-02-23T21:44:49.248Z,61.15
2018-02-23T21:47:16.659Z,61.58
2018-02-23T21:49:44.073Z,61.26
2018-02-23T21:52:11.494Z,61.48
2018-02-23T21:54:38.900Z,61.47
2018-02-23T21:57:06.308Z,60.99
2018-02-23T22:02:37.685Z,61.22
2018-02-23T22:05:05.096Z,60.12
2018-02-23T22:07:32.520Z,61.25
2018-02-23T22:09:59.925Z,60.77
2018-02-23T22:12:27.345Z,60.23
2018-02-23T22:14:54.753Z,59.64
2018-02-23T22:17:22.184Z,60.76
2018-02-23T22:19:49.597Z,60.77
2018-02-23T22:22:17.023Z,60.61
2018-02-23T22:24:44.434Z,60.30
2018-02-23T22:27:11.840Z,60.78
2018-02-23T22:29:39.272Z,60.23
2018-02-23T22:32:06.690Z,60.03
2018-02-23T22:34:34.106Z,60.80
2018-02-23T22:37:01.527Z,60.18
2018-02-23T22:39:28.937Z,59.25
2018-02-23T22:41:56.365Z,59.35
2018-02-23T22:44:23.789Z,59.62
2018-02-23T22:46:51.214Z,60.70
2018-02-23T22:49:18.621Z,60.02
2018-02-23T22:51:46.036Z,60.55
2018-02-23T22:54:13.445Z,59.62
2018-02-23T22:56:40.864Z,59.18
2018-02-23T22:59:09.249Z,60.03
2018-02-23T23:01:36.660Z,59.49
2018-02-23T23:04:04.072Z,59.60
2018-02-23T23:06:31.493Z,59.71
2018-02-23T23:08:58.904Z,60.27
2018-02-23T23:11:26.311Z,60.16
2018-02-23T23:13:53.734Z,59.49
2018-02-23T23:16:21.147Z,59.53
2018-02-23T23:18:48.564Z,59.88
2018-02-23T23:21:15.985Z,60.09
2018-02-23T23:23:43.407Z,59.52
2018-02-23T23:26:10.821Z,60.61
2018-02-23T23:28:38.249Z,60.29
2018-02-23T23:31:05.663Z,60.38
2018-02-23T23:33:33.088Z,61.18
2018-02-23T23:36:00.501Z,60.40
2018-02-23T23:38:27.913Z,60.43
2018-02-23T23:40:55.337Z,60.19
2018-02-23T23:43:22.772Z,60.75
2018-02-23T23:45:50.181Z,60.29
2018-02-23T23:48:17.604Z,60.55
2018-02-23T23:50:45.020Z,60.08
2018-02-23T23:53:12.440Z,60.17
2018-02-23T23:55:39.856Z,60.06
2018-02-23T23:58:07.273Z,60.40
